Time;durP1;ratioP1;P1;durP2;ratioP2;P2;SDS_P1;SDS_P2;PMS_P1;PMS_P2;Temp;Humidity;BMP_temperature;BMP_pressure;BME280_temperature;BME280_humidity;BME280_pressure;Samples;Min_cycle;Max_cycle;Signal;HPM_P1;HPM_P2
2024/03/11 00:02:25;;;;;;;1999.90;999.90;;;10.40;99.90;;;;;;5055719;28;20025;-82
2024/03/11 00:04:50;;;;;;;1999.90;999.90;;;10.50;99.90;;;;;;5060568;28;20040;-80
2024/03/11 00:07:16;;;;;;;1999.90;999.90;;;10.60;99.90;;;;;;5054174;28;20033;-83
2024/03/11 00:09:44;;;;;;;1999.90;999.90;;;10.70;99.90;;;;;;5056508;28;20515;-81
2024/03/11 00:12:17;;;;;;;1999.90;999.90;;;10.70;99.90;;;;;;5057315;28;20488;-80
2024/03/11 00:14:47;;;;;;;1999.90;999.90;;;10.70;99.90;;;;;;5055461;28;20376;-83
2024/03/11 00:17:13;;;;;;;1999.90;999.90;;;10.70;99.90;;;;;;5055629;28;20465;-79
2024/03/11 00:19:39;;;;;;;1999.90;999.90;;;10.60;99.90;;;;;;5054920;28;20044;-82
2024/03/11 00:22:04;;;;;;;1999.90;999.90;;;10.50;99.90;;;;;;5055324;28;20100;-80
2024/03/11 00:24:30;;;;;;;1999.90;999.90;;;10.50;99.90;;;;;;5057551;28;20492;-80
2024/03/11 00:26:56;;;;;;;1999.90;999.90;;;10.50;99.90;;;;;;5054123;28;20036;-80
2024/03/11 00:29:22;;;;;;;1999.90;999.90;;;10.50;99.90;;;;;;5056499;28;20048;-80
2024/03/11 00:31:50;;;;;;;1999.90;999.90;;;10.50;99.90;;;;;;5063389;28;20475;-80
2024/03/11 00:34:18;;;;;;;1999.90;999.90;;;10.50;99.90;;;;;;5053767;28;20024;-82
2024/03/11 00:36:48;;;;;;;1999.90;999.90;;;10.60;99.90;;;;;;5057134;28;20491;-82
2024/03/11 00:39:15;;;;;;;1999.90;999.90;;;10.50;99.90;;;;;;5053767;28;20033;-80
2024/03/11 00:41:41;;;;;;;1999.90;999.90;;;10.50;99.90;;;;;;5062402;28;20028;-80
2024/03/11 00:44:06;;;;;;;1999.90;999.90;;;10.50;99.90;;;;;;5054263;28;20479;-79
2024/03/11 00:46:35;;;;;;;1999.90;999.90;;;10.50;99.90;;;;;;5054989;28;20459;-80
2024/03/11 00:49:02;;;;;;;1999.90;999.90;;;10.70;99.90;;;;;;5053104;28;20028;-80
2024/03/11 00:51:27;;;;;;;1999.90;999.90;;;10.80;99.90;;;;;;5055509;28;20040;-82
2024/03/11 00:53:53;;;;;;;1999.90;999.90;;;10.80;99.90;;;;;;5054539;28;20515;-80
2024/03/11 00:56:21;;;;;;;1999.90;999.90;;;10.80;99.90;;;;;;5058040;28;20066;-81
2024/03/11 00:58:48;;;;;;;1999.90;999.90;;;10.90;99.90;;;;;;5055473;28;20033;-82
2024/03/11 01:01:14;;;;;;;1999.90;999.90;;;10.80;99.90;;;;;;5052901;28;20184;-83
2024/03/11 01:03:40;;;;;;;1999.90;999.90;;;10.80;99.90;;;;;;5064036;28;20017;-82
2024/03/11 01:06:07;;;;;;;1999.90;999.90;;;10.80;99.90;;;;;;5053136;28;20029;-80
2024/03/11 01:08:33;;;;;;;1999.90;999.90;;;10.80;99.90;;;;;;5052982;28;20028;-79
2024/03/11 01:10:59;;;;;;;1999.90;999.90;;;10.90;99.90;;;;;;5054958;28;20562;-79
2024/03/11 01:13:25;;;;;;;1999.90;999.90;;;11.20;99.90;;;;;;5052884;28;20064;-80
2024/03/11 01:15:50;;;;;;;1999.90;999.90;;;11.90;99.90;;;;;;5052665;28;20031;-80
2024/03/11 01:18:17;;;;;;;1999.90;999.90;;;12.20;99.90;;;;;;5053065;28;20484;-82
2024/03/11 01:20:43;;;;;;;1999.90;999.90;;;12.30;99.90;;;;;;5054091;28;20025;-80
2024/03/11 01:23:10;;;;;;;1999.90;999.90;;;12.40;99.90;;;;;;5054631;28;20471;-80
2024/03/11 01:25:36;;;;;;;1999.90;999.90;;;12.50;99.90;;;;;;5052857;28;20021;-80
2024/03/11 01:28:03;;;;;;;1999.90;999.90;;;12.40;99.90;;;;;;5052738;28;20574;-83
2024/03/11 01:30:29;;;;;;;1999.90;999.90;;;12.40;99.90;;;;;;5056390;28;20021;-80
2024/03/11 01:32:54;;;;;;;1999.90;999.90;;;12.40;99.90;;;;;;5052665;28;20032;-80
2024/03/11 01:35:21;;;;;;;1999.90;999.90;;;12.40;99.90;;;;;;5055563;28;20036;-80
2024/03/11 01:37:47;;;;;;;1999.90;999.90;;;12.40;99.90;;;;;;5052325;28;20024;-82
2024/03/11 01:40:15;;;;;;;1999.90;999.90;;;12.40;99.90;;;;;;5054441;28;20475;-80
2024/03/11 01:42:42;;;;;;;1999.90;999.90;;;12.40;99.90;;;;;;5053145;28;20029;-80
2024/03/11 01:45:09;;;;;;;1999.90;999.90;;;12.50;99.90;;;;;;5053877;28;20017;-83
2024/03/11 01:47:40;;;;;;;1999.90;999.90;;;12.70;99.90;;;;;;5052439;28;20098;-82
2024/03/11 01:50:09;;;;;;;1999.90;999.90;;;12.80;99.90;;;;;;5054083;28;20024;-80
2024/03/11 01:52:43;;;;;;;1999.90;999.90;;;13.10;99.90;;;;;;5052222;28;20497;-80
2024/03/11 01:55:10;;;;;;;1999.90;999.90;;;13.20;99.90;;;;;;5053982;28;20041;-80
2024/03/11 01:57:37;;;;;;;1999.90;999.90;;;13.20;99.90;;;;;;5052231;28;20033;-80
2024/03/11 02:00:10;;;;;;;1999.90;999.90;;;13.30;99.90;;;;;;5053734;28;20104;-80
2024/03/11 02:02:36;;;;;;;;;;;13.30;99.90;;;;;;5054478;28;20111;-80
2024/03/11 02:05:03;;;;;;;1999.90;999.90;;;13.40;99.90;;;;;;5052094;28;19934;-80
2024/03/11 02:07:30;;;;;;;1999.90;999.90;;;13.50;99.90;;;;;;5053676;28;20017;-80
2024/03/11 02:09:56;;;;;;;1999.90;999.90;;;13.50;99.90;;;;;;5054278;28;20029;-82
2024/03/11 02:12:22;;;;;;;1999.90;999.90;;;13.40;99.90;;;;;;5052125;28;20025;-80
2024/03/11 02:14:47;;;;;;;1999.90;999.90;;;13.40;99.90;;;;;;5054996;28;20029;-80
2024/03/11 02:17:15;;;;;;;1999.90;999.90;;;13.40;99.90;;;;;;5053385;28;20021;-83
2024/03/11 02:19:41;;;;;;;1999.90;999.90;;;13.40;99.90;;;;;;5051480;28;20041;-80
2024/03/11 02:22:08;;;;;;;1999.90;999.90;;;13.20;99.90;;;;;;5057916;28;20029;-83
2024/03/11 02:24:38;;;;;;;1999.90;999.90;;;13.10;99.90;;;;;;5051924;28;20029;-83
2024/03/11 02:27:04;;;;;;;1999.90;999.90;;;12.90;99.90;;;;;;5052105;28;20430;-81
2024/03/11 02:29:30;;;;;;;1999.90;999.90;;;12.70;99.90;;;;;;5053384;28;20372;-81
2024/03/11 02:31:56;;;;;;;1999.90;999.90;;;12.60;99.90;;;;;;5051915;28;20017;-80
2024/03/11 02:34:22;;;;;;;1999.90;999.90;;;12.50;99.90;;;;;;5052218;28;20036;-80
2024/03/11 02:36:53;;;;;;;1999.90;999.90;;;12.40;99.90;;;;;;5051697;28;20021;-81
2024/03/11 02:39:21;;;;;;;1999.90;999.90;;;12.40;99.90;;;;;;5053291;28;20483;-84
2024/03/11 02:41:49;;;;;;;1999.90;999.90;;;12.30;99.90;;;;;;5051663;28;20029;-80
2024/03/11 02:44:16;;;;;;;1999.90;999.90;;;12.20;99.90;;;;;;5048835;28;20029;-81
2024/03/11 02:46:42;;;;;;;1999.90;999.90;;;12.20;99.90;;;;;;5048759;28;20017;-83
2024/03/11 02:49:09;;;;;;;1999.90;999.90;;;12.00;99.90;;;;;;5067132;28;20076;-81
2024/03/11 02:51:34;;;;;;;1999.90;999.90;;;11.90;99.90;;;;;;5052943;28;20075;-83
2024/03/11 02:54:02;;;;;;;1999.90;999.90;;;11.90;99.90;;;;;;5069016;28;20069;-81
2024/03/11 02:56:27;;;;;;;1999.90;999.90;;;11.90;99.90;;;;;;5053954;28;20033;-84
2024/03/11 02:58:54;;;;;;;1999.90;999.90;;;11.80;99.90;;;;;;5036515;28;20537;-81
2024/03/11 03:01:20;;;;;;;1999.90;999.90;;;11.70;99.90;;;;;;5036930;28;20045;-80
2024/03/11 03:03:47;;;;;;;1999.90;999.90;;;11.60;99.90;;;;;;5053621;28;20538;-79
2024/03/11 03:06:16;;;;;;;1999.90;999.90;;;11.60;99.90;;;;;;5051330;28;20025;-83
2024/03/11 03:08:43;;;;;;;1999.90;999.90;;;11.50;99.90;;;;;;5052005;28;20095;-83
2024/03/11 03:11:09;;;;;;;1999.90;999.90;;;11.50;99.90;;;;;;5053338;28;20018;-82
2024/03/11 03:13:35;;;;;;;1999.90;999.90;;;11.40;99.90;;;;;;5052191;28;20038;-81
2024/03/11 03:16:02;;;;;;;1999.90;999.90;;;11.30;99.90;;;;;;5056419;28;20496;-82
2024/03/11 03:18:28;;;;;;;1999.90;999.90;;;11.20;99.90;;;;;;5057582;28;20400;-83
2024/03/11 03:20:53;;;;;;;1999.90;999.90;;;11.20;99.90;;;;;;5056561;28;20029;-84
2024/03/11 03:23:19;;;;;;;1999.90;999.90;;;11.10;99.90;;;;;;5056587;28;20025;-84
2024/03/11 03:25:45;;;;;;;1999.90;999.90;;;11.10;99.90;;;;;;5055105;28;20055;-83
2024/03/11 03:28:12;;;;;;;1999.90;999.90;;;11.00;99.90;;;;;;5056617;28;20387;-83
2024/03/11 03:30:38;;;;;;;1999.90;999.90;;;11.00;99.90;;;;;;5058893;28;20537;-80
2024/03/11 03:33:04;;;;;;;1999.90;999.90;;;11.00;99.90;;;;;;5056117;28;20040;-83
2024/03/11 03:35:30;;;;;;;1999.90;999.90;;;11.00;99.90;;;;;;5054719;28;20075;-80
2024/03/11 03:37:56;;;;;;;1999.90;999.90;;;11.00;99.90;;;;;;5055344;28;20396;-82
2024/03/11 03:40:25;;;;;;;1999.90;999.90;;;11.00;99.90;;;;;;5055005;28;20025;-80
2024/03/11 03:42:51;;;;;;;1999.90;999.90;;;11.00;99.90;;;;;;5056461;28;20047;-82
2024/03/11 03:45:18;;;;;;;1999.90;999.90;;;11.10;99.90;;;;;;5055135;28;20032;-82
2024/03/11 03:47:45;;;;;;;1999.90;999.90;;;11.00;99.90;;;;;;5054508;28;20096;-81
2024/03/11 03:50:12;;;;;;;1999.90;999.90;;;11.10;99.90;;;;;;5057562;28;20060;-80
2024/03/11 03:52:38;;;;;;;1999.90;999.90;;;11.10;99.90;;;;;;5055006;28;20017;-80
2024/03/11 03:55:05;;;;;;;1999.90;999.90;;;11.10;99.90;;;;;;5054348;28;20033;-80
2024/03/11 03:57:34;;;;;;;1999.90;999.90;;;11.20;99.90;;;;;;5055191;28;20021;-80
2024/03/11 04:00:00;;;;;;;1999.90;999.90;;;11.20;99.90;;;;;;5056040;28;20434;-82
2024/03/11 04:02:27;;;;;;;1999.90;999.90;;;11.20;99.90;;;;;;5054886;28;20029;-82
2024/03/11 04:04:52;;;;;;;1999.90;999.90;;;11.10;99.90;;;;;;5054824;28;20036;-81
2024/03/11 04:07:18;;;;;;;1999.90;999.90;;;11.10;99.90;;;;;;5055906;28;20025;-83
2024/03/11 04:09:44;;;;;;;1999.90;999.90;;;11.00;99.90;;;;;;5057732;28;20035;-83
2024/03/11 04:12:11;;;;;;;1999.90;999.90;;;10.90;99.90;;;;;;5054175;28;20033;-83
2024/03/11 04:14:38;;;;;;;1999.90;999.90;;;10.90;99.90;;;;;;5054660;28;20029;-83
2024/03/11 04:17:06;;;;;;;1999.90;999.90;;;10.80;99.90;;;;;;5055930;28;20075;-83
2024/03/11 04:19:31;;;;;;;1999.90;999.90;;;10.90;99.90;;;;;;5053748;28;20041;-80
2024/03/11 04:21:57;;;;;;;1999.90;999.90;;;10.90;99.90;;;;;;5064160;28;20044;-82
2024/03/11 04:24:24;;;;;;;1999.90;999.90;;;10.90;99.90;;;;;;5054069;28;20376;-82
2024/03/11 04:26:50;;;;;;;1999.90;999.90;;;10.90;99.90;;;;;;5054075;28;20032;-83
2024/03/11 04:29:16;;;;;;;1999.90;999.90;;;10.90;99.90;;;;;;5055992;28;20025;-83
2024/03/11 04:31:42;;;;;;;1999.90;999.90;;;10.90;99.90;;;;;;5053675;28;20025;-80
2024/03/11 04:34:08;;;;;;;1999.90;999.90;;;10.80;99.90;;;;;;5053713;28;20115;-81
2024/03/11 04:36:36;;;;;;;1999.90;999.90;;;10.80;99.90;;;;;;5054138;28;20480;-83
2024/03/11 04:39:04;;;;;;;1999.90;999.90;;;10.80;99.90;;;;;;5053447;28;20510;-83
2024/03/11 04:41:31;;;;;;;1999.90;999.90;;;10.70;99.90;;;;;;5057180;28;20042;-83
2024/03/11 04:43:59;;;;;;;1999.90;999.90;;;10.60;99.90;;;;;;5035263;28;20029;-81
2024/03/11 04:46:25;;;;;;;1999.90;999.90;;;10.50;99.90;;;;;;5036919;28;20096;-83
2024/03/11 04:48:51;;;;;;;1999.90;999.90;;;10.40;99.90;;;;;;5065910;28;20037;-79
2024/03/11 04:51:16;;;;;;;1999.90;999.90;;;10.30;99.90;;;;;;5054915;28;20368;-79
2024/03/11 04:53:43;;;;;;;1999.90;999.90;;;10.30;99.90;;;;;;5053421;28;20029;-79
2024/03/11 04:56:09;;;;;;;1999.90;999.90;;;10.30;99.90;;;;;;5063022;28;20029;-83
2024/03/11 04:58:37;;;;;;;1999.90;999.90;;;10.30;99.90;;;;;;5053471;28;20040;-83
2024/03/11 05:01:05;;;;;;;1999.90;999.90;;;10.20;99.90;;;;;;5053280;28;20479;-83
2024/03/11 05:03:31;;;;;;;1999.90;999.90;;;10.20;99.90;;;;;;5053387;28;20145;-80
2024/03/11 05:05:56;;;;;;;1999.90;999.90;;;10.20;99.90;;;;;;5053231;28;20070;-82
2024/03/11 05:08:22;;;;;;;1999.90;999.90;;;10.30;99.90;;;;;;5054781;28;20033;-82
2024/03/11 05:10:48;;;;;;;1999.90;999.90;;;10.30;99.90;;;;;;5054966;28;20506;-83
2024/03/11 05:13:14;;;;;;;1999.90;999.90;;;10.30;99.90;;;;;;5052548;28;20057;-83
2024/03/11 05:15:49;;;;;;;1999.90;999.90;;;10.30;99.90;;;;;;5055077;28;20400;-82
2024/03/11 05:18:15;;;;;;;1999.90;999.90;;;10.30;99.90;;;;;;5052509;28;20497;-82
2024/03/11 05:20:42;;;;;;;1999.90;999.90;;;10.30;99.90;;;;;;5054119;28;20056;-83
2024/03/11 05:23:08;;;;;;;1999.90;999.90;;;10.30;99.90;;;;;;5056529;28;20120;-83
2024/03/11 05:25:34;;;;;;;1999.90;999.90;;;10.30;99.90;;;;;;5052824;28;20112;-80
2024/03/11 05:28:00;;;;;;;1999.90;999.90;;;10.30;99.90;;;;;;5054052;28;20061;-83
2024/03/11 05:30:27;;;;;;;1999.90;999.90;;;10.20;99.90;;;;;;5053026;28;20095;-83
2024/03/11 05:32:54;;;;;;;1999.90;999.90;;;10.20;99.90;;;;;;5053986;28;20025;-80
2024/03/11 05:35:21;;;;;;;1999.90;999.90;;;10.20;99.90;;;;;;5055627;28;20029;-82
2024/03/11 05:37:48;;;;;;;1999.90;999.90;;;10.10;99.90;;;;;;5053599;28;20032;-83
2024/03/11 05:40:14;;;;;;;1999.90;999.90;;;10.10;99.90;;;;;;5052629;28;20033;-80
2024/03/11 05:42:44;;;;;;;1999.90;999.90;;;10.10;99.90;;;;;;5055857;28;20044;-83
2024/03/11 05:45:10;;;;;;;1999.90;999.90;;;10.10;99.90;;;;;;5051837;28;20033;-80
2024/03/11 05:47:36;;;;;;;1999.90;999.90;;;10.00;99.90;;;;;;5052815;28;20116;-83
2024/03/11 05:50:03;;;;;;;1999.90;999.90;;;10.10;99.90;;;;;;5054362;28;20056;-83
2024/03/11 05:52:29;;;;;;;1999.90;999.90;;;10.00;99.90;;;;;;5053680;28;20017;-83
2024/03/11 05:54:57;;;;;;;1999.90;999.90;;;9.70;99.90;;;;;;5055367;28;20590;-83
2024/03/11 05:57:25;;;;;;;1999.90;999.90;;;9.20;99.90;;;;;;5052329;28;20025;-83
2024/03/11 05:59:51;;;;;;;1999.90;999.90;;;8.90;99.90;;;;;;5052482;28;20029;-82
2024/03/11 06:02:18;;;;;;;1999.90;999.90;;;8.70;99.90;;;;;;5053130;28;20428;-83
2024/03/11 06:04:44;;;;;;;1999.90;999.90;;;8.60;99.90;;;;;;5072184;28;20039;-81
2024/03/11 06:07:09;;;;;;;1999.90;999.90;;;8.50;99.90;;;;;;5072437;28;20487;-81
2024/03/11 06:09:36;;;;;;;1999.90;999.90;;;8.50;99.90;;;;;;5072669;28;20174;-83
2024/03/11 06:12:03;;;;;;;1999.90;999.90;;;8.40;99.90;;;;;;5053403;28;20024;-82
2024/03/11 06:14:29;;;;;;;1999.90;999.90;;;8.50;99.90;;;;;;5056148;28;20044;-81
2024/03/11 06:16:54;;;;;;;1999.90;999.90;;;8.50;99.90;;;;;;5053065;28;20017;-80
2024/03/11 06:19:21;;;;;;;1999.90;999.90;;;8.50;99.90;;;;;;5051521;28;20053;-81
2024/03/11 06:21:48;;;;;;;1999.90;999.90;;;8.50;99.90;;;;;;5054809;28;20020;-80
2024/03/11 06:24:14;;;;;;;1999.90;999.90;;;8.70;99.90;;;;;;5052161;28;20037;-81
2024/03/11 06:26:40;;;;;;;1999.90;999.90;;;8.80;99.90;;;;;;5055491;28;20025;-80
2024/03/11 06:29:06;;;;;;;1999.90;999.90;;;8.90;99.90;;;;;;5050994;28;20029;-81
2024/03/11 06:31:38;;;;;;;1999.90;999.90;;;9.10;99.90;;;;;;5050695;28;20041;-83
2024/03/11 06:34:06;;;;;;;1999.90;999.90;;;9.30;99.90;;;;;;5060964;28;20106;-82
2024/03/11 06:36:32;;;;;;;1999.90;999.90;;;9.40;99.90;;;;;;5052360;28;20495;-83
2024/03/11 06:38:58;;;;;;;1999.90;999.90;;;9.50;99.90;;;;;;5052811;28;20041;-80
2024/03/11 06:41:25;;;;;;;1999.90;999.90;;;9.70;99.90;;;;;;5056710;28;20580;-80
2024/03/11 06:43:51;;;;;;;1999.90;999.90;;;9.90;99.90;;;;;;5049871;28;20025;-83
2024/03/11 06:46:18;;;;;;;1999.90;999.90;;;10.00;99.90;;;;;;5051755;28;20086;-80
2024/03/11 06:48:44;;;;;;;1999.90;999.90;;;10.00;99.90;;;;;;5063609;28;20152;-80
2024/03/11 06:51:11;;;;;;;1999.90;999.90;;;10.00;99.90;;;;;;5072709;28;20480;-83
2024/03/11 06:53:38;;;;;;;1999.90;999.90;;;9.90;99.90;;;;;;5049426;28;20029;-81
2024/03/11 06:56:06;;;;;;;1999.90;999.90;;;9.80;99.90;;;;;;5050976;28;20191;-80
2024/03/11 06:58:33;;;;;;;1999.90;999.90;;;9.70;99.90;;;;;;5049612;28;20119;-80
2024/03/11 07:00:58;;;;;;;1999.90;999.90;;;9.60;99.90;;;;;;5041635;28;20434;-81
2024/03/11 07:03:29;;;;;;;1999.90;999.90;;;9.60;99.90;;;;;;5053118;28;20025;-83
2024/03/11 07:05:58;;;;;;;1999.90;999.90;;;9.60;99.90;;;;;;5047270;28;20063;-80
2024/03/11 07:08:27;;;;;;;1999.90;999.90;;;9.70;99.90;;;;;;5047181;28;20033;-83
2024/03/11 07:10:55;;;;;;;1999.90;999.90;;;9.90;99.90;;;;;;5052365;28;20025;-83
2024/03/11 07:13:21;;;;;;;1999.90;999.90;;;10.00;99.90;;;;;;5053916;28;20087;-80
2024/03/11 07:15:47;;;;;;;1999.90;999.90;;;10.10;99.90;;;;;;5052799;28;20029;-80
2024/03/11 07:18:19;;;;;;;1999.90;999.90;;;10.30;99.90;;;;;;5071573;28;20105;-84
2024/03/11 07:20:45;;;;;;;1999.90;999.90;;;10.50;99.90;;;;;;5051747;28;20091;-84
2024/03/11 07:23:12;;;;;;;1999.90;999.90;;;10.60;99.90;;;;;;5061892;28;20090;-83
2024/03/11 07:25:38;;;;;;;1999.90;999.90;;;10.50;99.90;;;;;;5071861;28;20509;-83
2024/03/11 07:28:05;;;;;;;1999.90;999.90;;;10.40;99.90;;;;;;5054186;28;20029;-84
2024/03/11 07:30:31;;;;;;;1999.90;999.90;;;10.40;99.90;;;;;;5063964;28;20028;-84
2024/03/11 07:33:14;;;;;;;1999.90;999.90;;;10.40;99.90;;;;;;5076322;28;20035;-80
2024/03/11 07:35:44;;;;;;;1999.90;999.90;;;10.40;99.90;;;;;;5047483;28;20128;-80
2024/03/11 07:38:11;;;;;;;1999.90;999.90;;;10.40;99.90;;;;;;5064015;28;20032;-84
2024/03/11 07:40:38;;;;;;;1999.90;999.90;;;10.60;99.90;;;;;;5057527;28;20590;-86
2024/03/11 07:43:06;;;;;;;1999.90;999.90;;;10.90;99.90;;;;;;5054014;28;20537;-81
2024/03/11 07:45:36;;;;;;;1999.90;999.90;;;11.00;99.90;;;;;;5053107;28;20029;-80
2024/03/11 07:48:02;;;;;;;1999.90;999.90;;;11.00;99.90;;;;;;5054196;28;20021;-82
2024/03/11 07:50:28;;;;;;;1999.90;999.90;;;11.00;99.90;;;;;;5058505;28;20808;-82
2024/03/11 07:52:54;;;;;;;1999.90;999.90;;;10.80;99.90;;;;;;5053109;28;20025;-82
2024/03/11 07:55:24;;;;;;;1999.90;999.90;;;10.60;99.90;;;;;;5059166;28;20025;-83
2024/03/11 07:57:53;;;;;;;1999.90;999.90;;;10.70;99.90;;;;;;5072811;28;20017;-81
2024/03/11 08:00:21;;;;;;;1999.90;999.90;;;11.30;99.90;;;;;;5069691;28;20025;-81
2024/03/11 08:02:47;;;;;;;1999.90;999.90;;;11.40;99.90;;;;;;5066715;28;20029;-79
2024/03/11 08:05:13;;;;;;;1999.90;999.90;;;10.90;99.90;;;;;;5052909;28;20110;-82
2024/03/11 08:07:47;;;;;;;1999.90;999.90;;;10.60;99.90;;;;;;5066733;28;20063;-80
2024/03/11 08:10:13;;;;;;;1999.90;999.90;;;10.50;99.90;;;;;;5062224;28;20780;-79
2024/03/11 08:12:41;;;;;;;1999.90;999.90;;;10.50;99.90;;;;;;5053853;28;20032;-79
2024/03/11 08:15:11;;;;;;;1999.90;999.90;;;10.50;99.90;;;;;;5055729;28;20052;-80
2024/03/11 08:17:37;;;;;;;1999.90;999.90;;;10.40;99.90;;;;;;5051154;28;20115;-79
2024/03/11 08:20:08;;;;;;;1999.90;999.90;;;10.50;99.90;;;;;;5049921;28;20476;-81
2024/03/11 08:22:37;;;;;;;1999.90;999.90;;;10.50;99.90;;;;;;5053216;28;20013;-81
2024/03/11 08:25:04;;;;;;;1999.90;999.90;;;10.90;99.90;;;;;;5063411;28;20078;-80
2024/03/11 08:27:31;;;;;;;1999.90;999.90;;;11.80;99.90;;;;;;5066249;28;20503;-81
2024/03/11 08:29:57;;;;;;;1999.90;999.90;;;13.10;99.90;;;;;;5061667;28;20020;-81
2024/03/11 08:32:23;;;;;;;1999.90;999.90;;;14.80;99.90;;;;;;5057052;28;20040;-82
2024/03/11 08:34:49;;;;;;;1999.90;999.90;;;16.60;99.90;;;;;;5061757;28;20040;-81
2024/03/11 08:37:14;;;;;;;1999.90;999.90;;;17.40;99.90;;;;;;5052979;28;20371;-80
2024/03/11 08:39:41;;;;;;;1999.90;999.90;;;18.50;99.90;;;;;;5054672;28;20029;-82
2024/03/11 08:42:07;;;;;;;1999.90;999.90;;;18.20;99.90;;;;;;5064207;28;20033;-81
2024/03/11 08:44:32;;;;;;;1999.90;999.90;;;18.00;99.90;;;;;;5059591;28;20030;-81
2024/03/11 08:46:58;;;;;;;1999.90;999.90;;;18.10;99.90;;;;;;5056139;28;20021;-82
2024/03/11 08:49:24;;;;;;;1999.90;999.90;;;18.50;99.90;;;;;;5054879;28;20033;-81
2024/03/11 08:51:51;;;;;;;1999.90;999.90;;;19.00;99.90;;;;;;5069082;28;20028;-81
2024/03/11 08:54:16;;;;;;;1999.90;999.90;;;19.00;99.90;;;;;;5055724;28;20482;-82
2024/03/11 08:56:42;;;;;;;1999.90;999.90;;;19.20;99.90;;;;;;5060289;28;20033;-83
2024/03/11 08:59:11;;;;;;;1999.90;999.90;;;18.90;99.90;;;;;;5072207;28;20099;-83
2024/03/11 09:01:40;;;;;;;1999.90;999.90;;;19.50;99.90;;;;;;5050920;28;20029;-82
2024/03/11 09:04:10;;;;;;;1999.90;999.90;;;20.10;99.90;;;;;;5050352;28;20029;-81
2024/03/11 09:06:43;;;;;;;1999.90;999.90;;;21.00;99.90;;;;;;5052462;28;20108;-82
2024/03/11 09:09:09;;;;;;;1999.90;999.90;;;19.90;99.90;;;;;;5060287;28;20036;-80
2024/03/11 09:11:37;;;;;;;1999.90;999.90;;;19.90;99.90;;;;;;5054704;28;20036;-80
2024/03/11 09:14:04;;;;;;;1999.90;999.90;;;19.90;99.90;;;;;;5052267;28;20021;-81
2024/03/11 09:16:29;;;;;;;1999.90;999.90;;;21.00;99.90;;;;;;5066931;28;20154;-82
2024/03/11 09:18:55;;;;;;;1999.90;999.90;;;21.30;99.90;;;;;;5062020;28;20620;-83
2024/03/11 09:21:22;;;;;;;1999.90;999.90;;;21.30;99.90;;;;;;5069430;28;20044;-83
2024/03/11 09:23:48;;;;;;;1999.90;999.90;;;21.20;99.90;;;;;;5076063;28;20025;-82
2024/03/11 09:26:14;;;;;;;1999.90;999.90;;;21.10;99.90;;;;;;5077604;28;20036;-83
2024/03/11 09:28:40;;;;;;;1999.90;999.90;;;20.80;99.90;;;;;;5065079;28;20020;-81
2024/03/11 09:31:05;;;;;;;1999.90;999.90;;;20.60;99.90;;;;;;5066701;28;20025;-83
2024/03/11 09:33:31;;;;;;;1999.90;999.90;;;20.30;99.90;;;;;;5058931;28;20060;-82
2024/03/11 09:35:58;;;;;;;1999.90;999.90;;;19.20;99.90;;;;;;5063132;28;20139;-81
2024/03/11 09:38:24;;;;;;;1999.90;999.90;;;17.40;99.90;;;;;;5053551;28;20028;-82
2024/03/11 09:40:52;;;;;;;1999.90;999.90;;;16.60;99.90;;;;;;5055891;28;20025;-81
2024/03/11 09:43:18;;;;;;;1999.90;999.90;;;16.20;99.90;;;;;;5048462;28;20032;-81
2024/03/11 09:45:45;;;;;;;1999.90;999.90;;;15.30;99.90;;;;;;5053432;28;20029;-81
2024/03/11 09:48:11;;;;;;;1999.90;999.90;;;15.30;99.90;;;;;;5050874;28;20115;-81
2024/03/11 09:50:41;;;;;;;1999.90;999.90;;;14.80;99.90;;;;;;5062831;28;20457;-82
2024/03/11 09:53:12;;;;;;;1999.90;999.90;;;14.50;99.90;;;;;;5053103;28;20029;-81
2024/03/11 09:55:39;;;;;;;1999.90;999.90;;;14.30;99.90;;;;;;5049924;28;20025;-81
2024/03/11 09:58:12;;;;;;;1999.90;999.90;;;14.00;99.90;;;;;;5038383;28;20017;-82
2024/03/11 10:00:48;;;;;;;1999.90;999.90;;;14.10;99.90;;;;;;5049769;28;20123;-82
2024/03/11 10:03:21;;;;;;;1999.90;999.90;;;14.10;99.90;;;;;;5056938;28;20025;-81
2024/03/11 10:06:07;;;;;;;1999.90;999.90;;;13.90;99.90;;;;;;5060855;28;20052;-81
2024/03/11 10:08:35;;;;;;;1999.90;999.90;;;14.20;99.90;;;;;;5052677;28;20117;-82
2024/03/11 10:11:14;;;;;;;1999.90;999.90;;;13.90;99.90;;;;;;5061831;28;20048;-81
2024/03/11 10:13:40;;;;;;;1999.90;999.90;;;13.60;99.90;;;;;;5077358;28;20405;-82
2024/03/11 10:16:14;;;;;;;1999.90;999.90;;;13.60;99.90;;;;;;5071541;28;20488;-81
2024/03/11 10:18:48;;;;;;;1999.90;999.90;;;13.20;99.90;;;;;;5057107;28;20037;-81
2024/03/11 10:21:19;;;;;;;1999.90;999.90;;;13.20;99.90;;;;;;5064902;28;20451;-81
2024/03/11 10:23:48;;;;;;;1999.90;999.90;;;12.90;99.90;;;;;;5054982;28;20041;-80
2024/03/11 10:26:17;;;;;;;1999.90;999.90;;;12.80;99.90;;;;;;5058123;28;20459;-80
2024/03/11 10:28:49;;;;;;;1999.90;999.90;;;12.70;99.90;;;;;;5050974;28;20037;-81
2024/03/11 10:31:27;;;;;;;1999.90;999.90;;;12.90;99.90;;;;;;5047070;28;20059;-81
2024/03/11 10:34:20;;;;;;;1999.90;999.90;;;13.30;99.90;;;;;;5053810;28;20120;-81
2024/03/11 10:36:47;;;;;;;1999.90;999.90;;;13.20;99.90;;;;;;5073596;28;20479;-81
2024/03/11 10:41:52;;;;;;;1999.90;999.90;;;12.60;99.90;;;;;;5051321;28;20037;-81
2024/03/11 10:44:33;;;;;;;1999.90;999.90;;;12.60;99.90;;;;;;5050413;28;20067;-81
2024/03/11 10:47:14;;;;;;;1999.90;999.90;;;12.60;99.90;;;;;;5059492;28;20025;-81
2024/03/11 10:49:47;;;;;;;1999.90;999.90;;;12.50;99.90;;;;;;5052360;28;20071;-81
2024/03/11 10:52:16;;;;;;;1999.90;999.90;;;12.60;99.90;;;;;;5062276;28;20107;-80
2024/03/11 10:54:47;;;;;;;1999.90;999.90;;;12.90;99.90;;;;;;5055496;28;20132;-81
2024/03/11 10:57:26;;;;;;;1999.90;999.90;;;13.10;99.90;;;;;;5068074;28;20040;-82
2024/03/11 10:59:54;;;;;;;1999.90;999.90;;;13.10;99.90;;;;;;5079534;28;20111;-81
2024/03/11 11:02:32;;;;;;;1999.90;999.90;;;13.00;99.90;;;;;;5051443;28;20024;-82
2024/03/11 11:05:01;;;;;;;1999.90;999.90;;;13.00;99.90;;;;;;5060731;28;20029;-81
2024/03/11 11:07:30;;;;;;;1999.90;999.90;;;13.10;99.90;;;;;;5058911;28;20040;-81
2024/03/11 11:10:04;;;;;;;1999.90;999.90;;;13.10;99.90;;;;;;5062906;28;20479;-81
2024/03/11 11:12:42;;;;;;;1999.90;999.90;;;13.10;99.90;;;;;;5068866;28;20104;-80
2024/03/11 11:15:12;;;;;;;1999.90;999.90;;;13.40;99.90;;;;;;5055940;28;20501;-81
2024/03/11 11:17:41;;;;;;;1999.90;999.90;;;13.60;99.90;;;;;;5055713;28;20054;-81
2024/03/11 11:20:29;;;;;;;1999.90;999.90;;;13.60;99.90;;;;;;5064632;28;20050;-81
2024/03/11 11:23:02;;;;;;;1999.90;999.90;;;13.50;99.90;;;;;;5063493;28;20051;-81
2024/03/11 11:25:42;;;;;;;1999.90;999.90;;;13.40;99.90;;;;;;5069059;28;20031;-81
2024/03/11 11:28:07;;;;;;;1999.90;999.90;;;13.40;99.90;;;;;;5044742;28;20100;-81
2024/03/11 11:30:33;;;;;;;1999.90;999.90;;;13.40;99.90;;;;;;5063734;28;20108;-81
2024/03/11 11:33:01;;;;;;;1999.90;999.90;;;13.40;99.90;;;;;;5066304;28;20028;-81
2024/03/11 11:35:40;;;;;;;1999.90;999.90;;;13.10;99.90;;;;;;5063721;28;20025;-81
2024/03/11 11:38:27;;;;;;;1999.90;999.90;;;13.30;99.90;;;;;;5054722;28;20021;-80
2024/03/11 11:40:53;;;;;;;1999.90;999.90;;;13.40;99.90;;;;;;5052485;28;20515;-81
2024/03/11 11:43:44;;;;;;;1999.90;999.90;;;13.30;99.90;;;;;;5062915;28;20036;-81
2024/03/11 11:46:11;;;;;;;1999.90;999.90;;;13.60;99.90;;;;;;5069041;28;20047;-81
2024/03/11 11:48:37;;;;;;;1999.90;999.90;;;14.00;99.90;;;;;;5066796;28;20487;-81
2024/03/11 11:51:03;;;;;;;1999.90;999.90;;;13.90;99.90;;;;;;5057985;28;20037;-82
2024/03/11 11:53:35;;;;;;;1999.90;999.90;;;13.60;99.90;;;;;;5052995;28;20103;-82
2024/03/11 11:56:02;;;;;;;1999.90;999.90;;;13.80;99.90;;;;;;5071355;28;20027;-82
2024/03/11 11:58:27;;;;;;;1999.90;999.90;;;13.90;99.90;;;;;;5066822;28;20025;-81
2024/03/11 12:01:04;;;;;;;1999.90;999.90;;;13.60;99.90;;;;;;5059919;28;20028;-81
2024/03/11 12:03:36;;;;;;;1999.90;999.90;;;13.50;99.90;;;;;;5059166;28;20029;-79
2024/03/11 12:06:17;;;;;;;1999.90;999.90;;;14.00;99.90;;;;;;5056347;28;20801;-78
2024/03/11 12:08:44;;;;;;;1999.90;999.90;;;14.10;99.90;;;;;;5054713;28;20039;-79